aviador You're here:

KLKR Decoded Metar

LANCASTER in SC, USA
Report Time2017-09-25 20:15:00
UTC Time2017-09-25 20:28:42
Flight Rules vfr VFR
Wind040° at 08 kt
W.Decomp.*RWY 06: 7.8 kt HW 1.8 kt LCW
W.Rank040° ranks 1
Current wind is above 040° avg. (5.3)
Visibility9999 m
Phenomena:N/A
Clouds:N/A
Expected CloudBase > 5,200 ft AGL from Temp-Dew spread
CeilingNone
Temp29°C (ISA +15)
Dew Point16°C (45% RH)
Heat Index29.1°C
AAT28.0°C
QNH1014 hPa
Density Alt2,418 ft
Elevation489 ft
Report Wrong Elevation
Raw Report
METAR KLKR 252015Z AUTO 04008KT 360V360 10SM CLR 29/16 A2993 RMK AO2=

Extra information for KLKR:More info

Metar Taf Metar & Taf Last 4 Metars F.Rules Stats Wind Profile Meteogram Temp Stats Airport Information Weather charts Add Link Nearby VenuesMetar ALERT Operation Metar Decoded Social comments

AIRNAV info for KLKR